Time;durP1;ratioP1;P1;durP2;ratioP2;P2;SDS_P1;SDS_P2;PMS_P1;PMS_P2;Temp;Humidity;BMP_temperature;BMP_pressure;BME280_temperature;BME280_humidity;BME280_pressure;Samples;Min_cycle;Max_cycle;Signal;HPM_P1;HPM_P2
2023/08/30 00:00:45;;;;;;;14.43;12.40;;;14.10;99.90;;;;;;5031641;28;20044;-79
2023/08/30 00:03:12;;;;;;;16.08;12.27;;;14.10;99.90;;;;;;5014667;28;20104;-79
2023/08/30 00:05:40;;;;;;;14.90;11.90;;;14.30;99.90;;;;;;5032784;28;20489;-79
2023/08/30 00:08:07;;;;;;;14.18;12.23;;;14.50;99.90;;;;;;5035597;28;20120;-79
2023/08/30 00:10:37;;;;;;;16.83;12.50;;;14.10;99.90;;;;;;5035370;28;20116;-79
2023/08/30 00:13:04;;;;;;;17.30;11.80;;;14.60;99.90;;;;;;5022028;28;20510;-79
2023/08/30 00:15:30;;;;;;;13.82;11.32;;;14.10;99.90;;;;;;5034851;28;20536;-79
2023/08/30 00:17:57;;;;;;;14.15;11.25;;;14.10;99.90;;;;;;5016099;28;20042;-79
2023/08/30 00:20:23;;;;;;;18.42;12.13;;;14.10;99.90;;;;;;5027356;28;20500;-79
2023/08/30 00:22:49;;;;;;;13.77;10.85;;;14.00;99.90;;;;;;5016405;28;20084;-79
2023/08/30 00:25:16;;;;;;;11.98;10.35;;;14.20;99.90;;;;;;5017669;28;20566;-79
2023/08/30 00:27:45;;;;;;;13.07;10.80;;;14.00;99.90;;;;;;5019312;28;20056;-79
2023/08/30 00:30:11;;;;;;;13.95;10.15;;;14.00;99.90;;;;;;5036848;28;20041;-79
2023/08/30 00:32:37;;;;;;;12.55;10.50;;;14.00;99.90;;;;;;5033382;28;20037;-79
2023/08/30 00:35:03;;;;;;;13.32;10.45;;;14.50;99.90;;;;;;5018387;28;20419;-78
2023/08/30 00:37:29;;;;;;;12.77;10.55;;;13.90;99.90;;;;;;5035211;28;20046;-79
2023/08/30 00:39:55;;;;;;;13.85;10.10;;;13.90;99.90;;;;;;5019834;28;20040;-79
2023/08/30 00:42:21;;;;;;;13.38;10.27;;;14.40;99.90;;;;;;5018142;28;20409;-79
2023/08/30 00:44:46;;;;;;;19.80;10.30;;;13.90;99.90;;;;;;5020509;28;20037;-79
2023/08/30 00:47:12;;;;;;;12.50;10.13;;;13.90;99.90;;;;;;5037681;28;20036;-79
2023/08/30 00:49:40;;;;;;;14.35;10.73;;;14.00;99.90;;;;;;5037129;28;20029;-79
2023/08/30 00:52:09;;;;;;;12.85;9.27;;;13.90;99.90;;;;;;5033895;28;20096;-79
2023/08/30 00:54:35;;;;;;;13.20;9.50;;;14.00;99.90;;;;;;5017763;28;20477;-79
2023/08/30 00:57:01;;;;;;;13.57;9.70;;;14.30;99.90;;;;;;5014375;28;20129;-79
2023/08/30 00:59:27;;;;;;;10.88;9.20;;;13.90;99.90;;;;;;5031145;28;20060;-79
2023/08/30 01:01:55;;;;;;;13.15;9.10;;;13.80;99.90;;;;;;5034601;28;20049;-79
2023/08/30 01:04:22;;;;;;;13.38;10.15;;;13.80;99.90;;;;;;5035140;28;20045;-78
2023/08/30 01:06:48;;;;;;;13.88;9.27;;;13.90;99.90;;;;;;5017542;28;20052;-80
2023/08/30 01:09:18;;;;;;;11.60;9.40;;;14.20;99.90;;;;;;5017453;28;20099;-79
2023/08/30 01:12:06;;;;;;;13.38;9.43;;;13.90;99.90;;;;;;5017360;28;20033;-79
2023/08/30 01:15:06;;;;;;;13.95;9.65;;;13.80;99.90;;;;;;5034010;28;20041;-78
2023/08/30 01:17:33;;;;;;;12.57;9.75;;;13.80;99.90;;;;;;5015227;28;20045;-78
2023/08/30 01:20:24;;;;;;;10.95;9.60;;;14.40;99.90;;;;;;5015633;28;20045;-78
2023/08/30 01:23:06;;;;;;;11.30;9.57;;;13.70;99.90;;;;;;5031626;28;20179;-78
2023/08/30 01:25:52;;;;;;;13.32;9.10;;;13.70;99.90;;;;;;5007508;28;20072;-78
2023/08/30 01:28:22;;;;;;;13.27;9.13;;;13.70;99.90;;;;;;5031977;28;20494;-79
2023/08/30 01:30:49;;;;;;;14.05;9.40;;;14.20;99.90;;;;;;5018619;28;20401;-79
2023/08/30 01:33:16;;;;;;;12.80;9.48;;;13.70;99.90;;;;;;5033834;28;20044;-79
2023/08/30 01:35:43;;;;;;;13.20;10.40;;;13.60;99.90;;;;;;5035216;28;20117;-79
2023/08/30 01:38:10;;;;;;;12.70;9.38;;;13.70;99.90;;;;;;5032107;28;20079;-79
2023/08/30 01:40:42;;;;;;;14.35;10.05;;;13.70;99.90;;;;;;5027492;28;20029;-78
2023/08/30 01:43:10;;;;;;;12.07;9.68;;;13.00;99.90;;;;;;5012385;28;20044;-79
2023/08/30 01:45:40;;;;;;;14.40;10.25;;;14.30;99.90;;;;;;5034308;28;20042;-78
2023/08/30 01:48:09;;;;;;;17.02;11.23;;;13.60;99.90;;;;;;5032625;28;20049;-78
2023/08/30 01:50:35;;;;;;;12.60;10.32;;;13.70;99.90;;;;;;5034870;28;20528;-79
2023/08/30 01:53:03;;;;;;;14.63;10.95;;;13.70;99.90;;;;;;5030017;28;20119;-79
2023/08/30 01:55:30;;;;;;;17.27;11.23;;;13.60;99.90;;;;;;5016895;28;20037;-79
2023/08/30 01:57:55;;;;;;;14.57;11.35;;;14.10;99.90;;;;;;5035068;28;20034;-79
2023/08/30 02:00:21;;;;;;;17.75;12.45;;;14.10;99.90;;;;;;5034510;28;20329;-78
2023/08/30 02:02:48;;;;;;;16.15;11.35;;;13.60;99.90;;;;;;5032706;28;20045;-79
2023/08/30 02:05:15;;;;;;;17.80;11.70;;;13.70;99.90;;;;;;5013775;28;20472;-79
2023/08/30 02:07:58;;;;;;;14.90;11.13;;;13.70;99.90;;;;;;5014585;28;20420;-79
2023/08/30 02:10:56;;;;;;;15.93;11.70;;;13.60;99.90;;;;;;5030684;28;20120;-78
2023/08/30 02:13:26;;;;;;;14.93;11.93;;;13.70;99.90;;;;;;5009451;28;20120;-79
2023/08/30 02:15:56;;;;;;;14.77;11.35;;;13.60;99.90;;;;;;5035373;28;20042;-79
2023/08/30 02:18:23;;;;;;;17.23;11.25;;;14.20;99.90;;;;;;5015713;28;20339;-79
2023/08/30 02:20:49;;;;;;;14.65;11.20;;;13.80;99.90;;;;;;5017474;28;20037;-78
2023/08/30 02:23:15;;;;;;;15.27;11.15;;;13.70;99.90;;;;;;5011363;28;20490;-79
2023/08/30 02:25:41;;;;;;;15.77;12.07;;;13.90;99.90;;;;;;5017419;28;20029;-79
2023/08/30 02:28:06;;;;;;;18.52;11.43;;;13.80;99.90;;;;;;5017409;28;20045;-78
2023/08/30 02:30:32;;;;;;;15.90;11.50;;;13.80;99.90;;;;;;5017849;28;20060;-78
2023/08/30 02:32:58;;;;;;;20.38;11.77;;;13.80;99.90;;;;;;5033567;28;20059;-78
2023/08/30 02:35:23;;;;;;;14.07;11.35;;;13.80;99.90;;;;;;5034185;22;20049;-81
2023/08/30 02:37:49;;;;;;;14.98;11.98;;;13.80;99.90;;;;;;4991650;28;20045;-82
2023/08/30 02:40:14;;;;;;;15.13;11.25;;;13.70;99.90;;;;;;4992064;28;20058;-81
2023/08/30 02:42:40;;;;;;;17.65;12.20;;;13.70;99.90;;;;;;4991758;28;20046;-81
2023/08/30 02:45:06;;;;;;;15.23;11.65;;;13.60;99.90;;;;;;5009067;28;20034;-81
2023/08/30 02:47:32;;;;;;;14.57;11.40;;;13.60;99.90;;;;;;4992000;28;20030;-81
2023/08/30 02:49:57;;;;;;;15.73;11.98;;;13.60;99.90;;;;;;4993422;28;20096;-81
2023/08/30 02:52:23;;;;;;;14.70;10.95;;;13.60;99.90;;;;;;4990511;28;20038;-82
2023/08/30 02:54:48;;;;;;;15.00;10.88;;;13.50;99.90;;;;;;4991423;28;20047;-81
2023/08/30 02:57:14;;;;;;;15.82;11.50;;;13.50;99.90;;;;;;4991498;28;20078;-81
2023/08/30 02:59:40;;;;;;;14.73;10.82;;;13.50;99.90;;;;;;4991883;28;20034;-82
2023/08/30 03:02:05;;;;;;;15.25;10.70;;;13.50;99.90;;;;;;4992240;28;20092;-81
2023/08/30 03:04:34;;;;;;;15.52;11.45;;;13.40;99.90;;;;;;4995406;28;20034;-81
2023/08/30 03:07:00;;;;;;;13.57;10.70;;;13.40;99.90;;;;;;4991870;28;20458;-82
2023/08/30 03:09:25;;;;;;;15.35;10.80;;;13.40;99.90;;;;;;4992045;28;20077;-82
2023/08/30 03:11:51;;;;;;;14.18;10.23;;;13.30;99.90;;;;;;4989234;28;20549;-81
2023/08/30 03:14:16;;;;;;;14.48;11.43;;;13.30;99.90;;;;;;4999182;28;20038;-81
2023/08/30 03:16:44;;;;;;;16.30;11.23;;;13.30;99.90;;;;;;4992943;28;20049;-81
2023/08/30 03:19:10;;;;;;;15.63;11.10;;;13.30;99.90;;;;;;4992571;28;20596;-82
2023/08/30 03:21:36;;;;;;;14.45;10.88;;;13.30;99.90;;;;;;4992769;28;20129;-81
2023/08/30 03:24:01;;;;;;;15.05;11.35;;;13.30;99.90;;;;;;5003089;28;20038;-82
2023/08/30 03:26:27;;;;;;;13.60;11.38;;;13.30;99.90;;;;;;4993451;28;20056;-81
2023/08/30 03:28:52;;;;;;;16.92;11.27;;;13.20;99.90;;;;;;4991649;28;20038;-82
2023/08/30 03:31:19;;;;;;;14.52;11.98;;;13.20;99.90;;;;;;4990846;28;20057;-82
2023/08/30 03:33:46;;;;;;;16.40;11.55;;;13.20;99.90;;;;;;4994025;28;20120;-82
2023/08/30 03:36:12;;;;;;;16.70;10.90;;;13.20;99.90;;;;;;5011321;28;20498;-82
2023/08/30 03:38:38;;;;;;;14.57;11.07;;;13.20;99.90;;;;;;4993427;28;20053;-81
2023/08/30 03:41:04;;;;;;;14.18;10.88;;;13.20;99.90;;;;;;4990744;28;20121;-81
2023/08/30 03:43:31;;;;;;;16.80;11.82;;;13.20;99.90;;;;;;4992974;28;20062;-81
2023/08/30 03:45:57;;;;;;;17.27;11.27;;;13.20;99.90;;;;;;4995180;28;20129;-81
2023/08/30 03:48:23;;;;;;;14.23;11.52;;;13.20;99.90;;;;;;4990149;28;20034;-81
2023/08/30 03:50:49;;;;;;;14.55;11.20;;;13.20;99.90;;;;;;4991711;28;20545;-81
2023/08/30 03:53:14;;;;;;;14.93;11.48;;;13.30;99.90;;;;;;4990854;28;20081;-81
2023/08/30 03:55:41;;;;;;;13.90;11.18;;;13.20;99.90;;;;;;4989520;28;20043;-81
2023/08/30 03:58:06;;;;;;;15.18;10.45;;;13.20;99.90;;;;;;4991684;28;20057;-81
2023/08/30 04:00:34;;;;;;;13.98;11.10;;;13.20;99.90;;;;;;4990415;28;20034;-81
2023/08/30 04:03:00;;;;;;;15.52;11.68;;;13.20;99.90;;;;;;4990797;28;20082;-81
2023/08/30 04:05:25;;;;;;;14.68;10.13;;;13.20;99.90;;;;;;4987057;28;20527;-81
2023/08/30 04:07:51;;;;;;;14.68;11.02;;;13.20;99.90;;;;;;4990529;28;20050;-81
2023/08/30 04:10:17;;;;;;;15.05;11.27;;;13.30;99.90;;;;;;4992590;28;20038;-81
2023/08/30 04:12:42;;;;;;;15.57;10.70;;;13.20;99.90;;;;;;4990551;28;20030;-81
2023/08/30 04:15:09;;;;;;;13.50;10.82;;;13.20;99.90;;;;;;4993439;28;20105;-81
2023/08/30 04:17:34;;;;;;;18.13;11.45;;;13.30;99.90;;;;;;4999572;28;20049;-81
2023/08/30 04:20:00;;;;;;;14.57;10.65;;;13.30;99.90;;;;;;4998691;28;20042;-81
2023/08/30 04:22:26;;;;;;;15.30;11.57;;;13.30;99.90;;;;;;4997561;28;20050;-81
2023/08/30 04:24:51;;;;;;;13.48;10.90;;;13.40;99.90;;;;;;5000296;28;20124;-81
2023/08/30 04:27:17;;;;;;;15.15;10.90;;;13.40;99.90;;;;;;5010044;28;20064;-81
2023/08/30 04:29:44;;;;;;;12.00;9.77;;;13.40;99.90;;;;;;5003057;28;20038;-81
2023/08/30 04:32:11;;;;;;;17.20;10.68;;;13.40;99.90;;;;;;5001103;28;20106;-81
2023/08/30 04:34:36;;;;;;;13.70;10.93;;;13.40;99.90;;;;;;5001589;28;20043;-81
2023/08/30 04:37:03;;;;;;;14.60;11.02;;;13.40;99.90;;;;;;5003300;28;20046;-81
2023/08/30 04:39:28;;;;;;;14.88;10.52;;;13.40;99.90;;;;;;4986300;28;20050;-81
2023/08/30 04:41:54;;;;;;;13.63;10.70;;;13.40;99.90;;;;;;5002062;28;20039;-81
2023/08/30 04:44:24;;;;;;;15.25;11.07;;;13.40;99.90;;;;;;5002285;28;20045;-81
2023/08/30 04:46:49;;;;;;;15.15;10.55;;;13.50;99.90;;;;;;5004824;28;20042;-81
2023/08/30 04:49:15;;;;;;;15.05;11.05;;;13.50;99.90;;;;;;5001553;28;20058;-81
2023/08/30 04:51:40;;;;;;;14.80;10.48;;;13.50;99.90;;;;;;5003126;28;20038;-81
2023/08/30 04:54:06;;;;;;;13.75;10.98;;;13.50;99.90;;;;;;5003319;28;20050;-82
2023/08/30 04:56:34;;;;;;;15.05;11.02;;;13.50;99.90;;;;;;5010807;28;20034;-81
2023/08/30 04:59:03;;;;;;;13.32;11.00;;;13.50;99.90;;;;;;5004801;28;20384;-82
2023/08/30 05:01:29;;;;;;;15.02;10.88;;;13.40;99.90;;;;;;5002705;28;20050;-81
2023/08/30 05:03:55;;;;;;;15.68;11.05;;;13.40;99.90;;;;;;5004603;28;20034;-81
2023/08/30 05:06:20;;;;;;;13.60;10.43;;;13.50;99.90;;;;;;5008705;28;20132;-82
2023/08/30 05:08:46;;;;;;;22.48;14.10;;;13.50;99.90;;;;;;5004710;28;20107;-81
2023/08/30 05:11:12;;;;;;;34.20;19.60;;;13.50;99.90;;;;;;5003885;28;20077;-81
2023/08/30 05:13:37;;;;;;;29.90;17.33;;;13.50;99.90;;;;;;5005593;28;20042;-81
2023/08/30 05:16:03;;;;;;;17.40;12.52;;;13.50;99.90;;;;;;5003599;28;20042;-81
2023/08/30 05:18:29;;;;;;;16.02;11.75;;;13.50;99.90;;;;;;5014345;28;20046;-81
2023/08/30 05:20:54;;;;;;;15.82;11.18;;;13.50;99.90;;;;;;5003627;28;20049;-82
2023/08/30 05:23:20;;;;;;;16.85;10.75;;;13.50;99.90;;;;;;5003206;28;20125;-81
2023/08/30 05:25:46;;;;;;;15.00;11.43;;;13.50;99.90;;;;;;5003686;28;20026;-81
2023/08/30 05:28:18;;;;;;;16.30;11.00;;;13.50;99.90;;;;;;5004075;28;20056;-81
2023/08/30 05:30:44;;;;;;;16.08;11.70;;;13.50;99.90;;;;;;5000681;28;20124;-81
2023/08/30 05:36:31;;;;;;;18.13;10.75;;;13.50;99.90;;;;;;5003248;28;20050;-81
2023/08/30 05:38:57;;;;;;;15.15;11.15;;;13.60;99.90;;;;;;5002412;28;20376;-81
2023/08/30 05:41:22;;;;;;;17.70;11.70;;;13.60;99.90;;;;;;4985882;28;20034;-81
2023/08/30 05:47:14;;;;;;;16.38;11.27;;;13.60;99.90;;;;;;4996814;28;20054;-82
2023/08/30 05:49:40;;;;;;;16.02;11.00;;;13.70;99.90;;;;;;5002702;28;20069;-82
2023/08/30 05:52:06;;;;;;;15.43;11.27;;;13.70;99.90;;;;;;4997914;28;20398;-82
2023/08/30 05:54:33;;;;;;;16.58;11.18;;;13.70;99.90;;;;;;4998310;28;20042;-80
2023/08/30 05:56:59;;;;;;;15.57;11.15;;;13.70;99.90;;;;;;4995920;28;20046;-80
2023/08/30 05:59:25;;;;;;;14.88;10.93;;;13.80;99.90;;;;;;4999696;28;20047;-81
2023/08/30 06:01:51;;;;;;;15.38;11.23;;;13.80;99.90;;;;;;4997456;28;20518;-81
2023/08/30 06:04:19;;;;;;;17.05;11.15;;;13.80;99.90;;;;;;4994435;28;20050;-83
2023/08/30 06:06:45;;;;;;;15.45;11.40;;;13.80;99.90;;;;;;4992101;28;20046;-82
2023/08/30 06:09:12;;;;;;;14.15;10.20;;;13.90;99.90;;;;;;5001777;28;20044;-83
2023/08/30 06:11:38;;;;;;;14.40;10.45;;;13.90;99.90;;;;;;4992755;28;20046;-81
2023/08/30 06:14:04;;;;;;;16.80;11.57;;;13.90;99.90;;;;;;4994522;28;20046;-81
2023/08/30 06:16:30;;;;;;;14.50;10.88;;;13.90;99.90;;;;;;4992864;28;20469;-81
2023/08/30 06:18:58;;;;;;;17.95;11.52;;;14.00;99.90;;;;;;5002037;28;20041;-81
2023/08/30 06:21:42;;;;;;;16.77;10.98;;;14.00;99.90;;;;;;4994633;28;20088;-82
2023/08/30 06:24:43;;;;;;;17.95;11.85;;;14.10;99.90;;;;;;4986913;28;20113;-82
2023/08/30 06:31:44;;;;;;;16.73;11.43;;;14.20;99.90;;;;;;4991311;28;20045;-83
2023/08/30 06:34:16;;;;;;;17.35;11.68;;;14.20;99.90;;;;;;5008171;28;20394;-83
2023/08/30 06:37:09;;;;;;;16.52;11.00;;;14.20;99.90;;;;;;5003732;28;20050;-82
2023/08/30 06:39:36;;;;;;;17.17;11.48;;;14.30;99.90;;;;;;4999307;28;20089;-82
2023/08/30 06:42:02;;;;;;;16.75;11.73;;;14.30;99.90;;;;;;4988727;28;20046;-82
2023/08/30 06:44:29;;;;;;;15.95;10.73;;;14.40;99.90;;;;;;4991630;28;20042;-81
2023/08/30 06:46:58;;;;;;;16.38;11.10;;;14.50;99.90;;;;;;4997536;28;20034;-80
2023/08/30 06:49:24;;;;;;;17.80;10.98;;;14.40;99.90;;;;;;4981251;28;20042;-80
2023/08/30 06:51:49;;;;;;;16.63;11.60;;;14.40;99.90;;;;;;4986427;28;20537;-81
2023/08/30 06:54:15;;;;;;;16.02;11.20;;;14.40;99.90;;;;;;4988816;28;20410;-80
2023/08/30 06:56:40;;;;;;;15.60;11.20;;;14.40;99.90;;;;;;4993725;28;20065;-81
2023/08/30 06:59:06;;;;;;;15.80;11.35;;;14.40;99.90;;;;;;4998141;28;20406;-81
2023/08/30 07:01:31;;;;;;;16.27;12.02;;;14.40;99.90;;;;;;5001298;28;20046;-81
2023/08/30 07:03:57;;;;;;;16.23;11.35;;;14.40;99.90;;;;;;5000065;28;20041;-82
2023/08/30 07:06:23;;;;;;;16.65;12.02;;;14.40;99.90;;;;;;5002032;28;20416;-82
2023/08/30 07:08:48;;;;;;;15.88;12.18;;;14.40;99.90;;;;;;5002424;28;20065;-83
2023/08/30 07:11:14;;;;;;;16.98;11.82;;;14.50;99.90;;;;;;5001581;28;20039;-80
2023/08/30 07:13:39;;;;;;;16.25;12.15;;;14.60;99.90;;;;;;5001500;28;20254;-81
2023/08/30 07:16:05;;;;;;;16.27;11.20;;;14.60;99.90;;;;;;4996846;28;20043;-81
2023/08/30 07:18:31;;;;;;;18.08;12.07;;;14.70;99.90;;;;;;4996790;28;20042;-81
2023/08/30 07:20:56;;;;;;;17.80;12.48;;;14.80;99.90;;;;;;4995651;28;20090;-80
2023/08/30 07:23:22;;;;;;;15.57;11.52;;;14.80;99.90;;;;;;5002703;28;20046;-80
2023/08/30 07:25:48;;;;;;;17.65;12.45;;;14.90;99.90;;;;;;4997856;28;20049;-80
2023/08/30 07:28:13;;;;;;;17.20;12.55;;;14.90;99.90;;;;;;4993552;28;20050;-80
2023/08/30 07:30:39;;;;;;;19.52;12.38;;;15.00;99.90;;;;;;4994569;28;20124;-83
2023/08/30 07:33:05;;;;;;;15.95;11.98;;;15.00;99.90;;;;;;4998375;28;20049;-81
2023/08/30 07:35:32;;;;;;;17.25;12.52;;;15.20;99.90;;;;;;4997777;28;20049;-84
2023/08/30 07:37:58;;;;;;;19.27;12.20;;;15.30;99.90;;;;;;4995659;28;20046;-82
2023/08/30 07:40:28;;;;;;;17.90;13.27;;;15.30;99.90;;;;;;4993073;28;20046;-83
2023/08/30 07:42:53;;;;;;;20.15;13.60;;;15.40;99.90;;;;;;4996596;28;20042;-83
2023/08/30 07:45:19;;;;;;;18.05;13.43;;;15.40;99.90;;;;;;4992795;28;20125;-83
2023/08/30 07:47:44;;;;;;;21.17;13.35;;;15.50;99.90;;;;;;4993918;28;20030;-81
2023/08/30 07:50:10;;;;;;;19.10;12.63;;;15.50;99.90;;;;;;4990744;28;20038;-81
2023/08/30 07:52:45;;;;;;;20.15;13.15;;;15.50;99.90;;;;;;4991492;28;20034;-81
2023/08/30 07:55:11;;;;;;;17.35;12.63;;;15.50;99.90;;;;;;4989379;28;20051;-80
2023/08/30 07:57:36;;;;;;;16.95;12.32;;;15.60;99.90;;;;;;4991967;28;20049;-81
2023/08/30 08:00:03;;;;;;;19.45;12.88;;;15.60;99.90;;;;;;4991600;28;20081;-81
2023/08/30 08:02:28;;;;;;;16.90;11.60;;;15.60;99.90;;;;;;4997041;28;20117;-80
2023/08/30 08:04:54;;;;;;;18.77;12.68;;;15.60;99.90;;;;;;4988705;28;20211;-81
2023/08/30 08:07:21;;;;;;;17.17;12.15;;;15.60;99.90;;;;;;4990373;28;20043;-82
2023/08/30 08:09:47;;;;;;;15.40;12.30;;;15.50;99.90;;;;;;4990862;28;20042;-81
2023/08/30 08:12:13;;;;;;;15.50;11.73;;;15.50;99.90;;;;;;4990790;28;20057;-80
2023/08/30 08:14:38;;;;;;;20.02;13.38;;;15.50;99.90;;;;;;4973854;28;20100;-83
2023/08/30 08:17:04;;;;;;;17.25;11.95;;;15.40;99.90;;;;;;4990647;28;20058;-81
2023/08/30 08:19:30;;;;;;;17.70;11.98;;;15.40;99.90;;;;;;4991193;28;20050;-81
2023/08/30 08:21:55;;;;;;;19.85;12.15;;;15.30;99.90;;;;;;4989819;28;20375;-79
2023/08/30 08:24:21;;;;;;;16.92;12.43;;;15.30;99.90;;;;;;4989667;28;20144;-83
2023/08/30 08:26:47;;;;;;;20.27;12.73;;;15.20;99.90;;;;;;4989872;28;20042;-82
2023/08/30 08:29:12;;;;;;;18.52;12.45;;;15.30;99.90;;;;;;4992510;28;20053;-80
2023/08/30 08:31:39;;;;;;;19.48;13.48;;;15.30;99.90;;;;;;4990023;28;20125;-80
2023/08/30 08:34:10;;;;;;;18.35;13.25;;;15.30;99.90;;;;;;4994259;28;20042;-80
2023/08/30 08:36:43;;;;;;;20.33;12.50;;;15.20;99.90;;;;;;5069554;22;20158;-78
2023/08/30 08:39:09;;;;;;;17.88;13.13;;;15.20;99.90;;;;;;5010061;28;20548;-78
2023/08/30 08:42:31;;;;;;;19.55;12.57;;;15.20;99.90;;;;;;5015915;28;20037;-77
2023/08/30 08:44:58;;;;;;;19.13;13.30;;;15.10;99.90;;;;;;4998352;28;20034;-77
2023/08/30 08:47:24;;;;;;;19.67;13.38;;;15.40;99.90;;;;;;5005304;28;20386;-77
2023/08/30 08:49:59;;;;;;;16.38;12.45;;;15.70;99.90;;;;;;5013234;28;20104;-77
2023/08/30 08:52:25;;;;;;;17.20;12.68;;;15.60;99.90;;;;;;5011209;28;20052;-77
2023/08/30 08:54:52;;;;;;;18.23;13.77;;;14.90;99.90;;;;;;5009307;28;20033;-76
2023/08/30 08:57:19;;;;;;;22.98;14.70;;;14.90;99.90;;;;;;5016998;28;20367;-74
2023/08/30 08:59:46;;;;;;;18.35;13.68;;;15.00;99.90;;;;;;5023240;28;20088;-73
2023/08/30 09:02:17;;;;;;;20.10;13.75;;;15.00;99.90;;;;;;4998398;28;20121;-73
2023/08/30 09:04:43;;;;;;;18.52;13.95;;;14.90;99.90;;;;;;5025374;28;20038;-75
2023/08/30 09:07:09;;;;;;;19.27;13.20;;;15.40;99.90;;;;;;5004456;28;20038;-76
2023/08/30 09:09:42;;;;;;;19.00;13.38;;;14.80;99.90;;;;;;5009951;28;20036;-77
2023/08/30 09:12:08;;;;;;;20.95;12.70;;;14.80;99.90;;;;;;5023370;28;20045;-76
2023/08/30 09:14:37;;;;;;;18.02;12.82;;;14.70;99.90;;;;;;5024526;28;20064;-76
2023/08/30 09:17:03;;;;;;;20.08;11.65;;;15.10;99.90;;;;;;5013107;28;20034;-76
2023/08/30 09:19:30;;;;;;;19.42;12.15;;;14.70;99.90;;;;;;5012064;28;20172;-77
2023/08/30 09:21:57;;;;;;;16.17;10.68;;;14.60;99.90;;;;;;4995775;28;20038;-76
2023/08/30 09:24:45;;;;;;;15.30;10.60;;;14.60;99.90;;;;;;5019234;28;20116;-77
2023/08/30 09:27:11;;;;;;;16.02;10.00;;;14.60;99.90;;;;;;5026132;28;20041;-77
2023/08/30 09:29:39;;;;;;;14.65;9.35;;;14.80;99.90;;;;;;5012856;28;20042;-77
2023/08/30 09:32:05;;;;;;;12.55;8.85;;;14.70;99.90;;;;;;5012395;28;20049;-77
2023/08/30 09:34:31;;;;;;;14.07;9.27;;;14.70;99.90;;;;;;5003131;28;20037;-77
2023/08/30 09:37:03;;;;;;;12.75;8.80;;;14.80;99.90;;;;;;5009155;28;20037;-76
2023/08/30 09:39:29;;;;;;;15.55;9.75;;;14.80;99.90;;;;;;4992664;28;20045;-77
2023/08/30 09:42:17;;;;;;;44.50;11.15;;;14.90;99.90;;;;;;4994078;28;20033;-76
2023/08/30 09:44:43;;;;;;;18.40;9.73;;;15.00;99.90;;;;;;5008579;28;20031;-77
2023/08/30 09:47:13;;;;;;;11.93;8.52;;;15.10;99.90;;;;;;5009599;28;20046;-77
2023/08/30 09:49:46;;;;;;;13.60;8.80;;;15.20;99.90;;;;;;5011331;28;20046;-77
2023/08/30 09:52:18;;;;;;;14.18;9.30;;;15.30;99.90;;;;;;4993505;28;20129;-76
2023/08/30 09:54:45;;;;;;;11.77;8.73;;;16.00;99.90;;;;;;4990999;28;20038;-77
2023/08/30 09:57:12;;;;;;;13.40;8.63;;;15.60;99.90;;;;;;5021138;28;20567;-76
2023/08/30 09:59:39;;;;;;;11.32;8.48;;;16.00;99.90;;;;;;4991854;28;20100;-76
2023/08/30 10:02:05;;;;;;;13.75;8.75;;;15.70;99.90;;;;;;5009939;28;20513;-75
2023/08/30 10:04:33;;;;;;;12.32;8.25;;;15.80;99.90;;;;;;5005366;28;20085;-75
2023/08/30 10:07:02;;;;;;;13.75;8.88;;;15.90;99.90;;;;;;4993606;28;20030;-77
2023/08/30 10:09:30;;;;;;;10.93;7.97;;;16.30;99.90;;;;;;4992937;28;20329;-76
2023/08/30 10:11:58;;;;;;;11.18;7.90;;;15.90;99.90;;;;;;5008673;28;20124;-76
2023/08/30 10:14:23;;;;;;;11.50;8.90;;;15.50;99.90;;;;;;5008951;28;20029;-74
2023/08/30 10:16:51;;;;;;;11.50;8.95;;;15.90;99.90;;;;;;4991259;28;20398;-76
2023/08/30 10:19:31;;;;;;;15.15;8.82;;;16.10;99.90;;;;;;5007884;28;20049;-76
2023/08/30 10:22:12;;;;;;;11.55;9.10;;;15.90;99.90;;;;;;4995239;28;20088;-76
2023/08/30 10:25:16;;;;;;;12.20;8.85;;;15.70;99.90;;;;;;5004779;28;20187;-77
2023/08/30 10:27:48;;;;;;;12.93;8.77;;;15.70;99.90;;;;;;5005153;28;20097;-76
2023/08/30 10:30:17;;;;;;;12.93;8.93;;;15.40;99.90;;;;;;5001905;28;20505;-77
2023/08/30 10:32:44;;;;;;;12.00;8.80;;;15.50;99.90;;;;;;5005157;28;20346;-76
2023/08/30 10:35:17;;;;;;;12.77;9.38;;;16.40;99.90;;;;;;5005285;28;20548;-76
2023/08/30 10:38:05;;;;;;;13.15;9.48;;;15.50;99.90;;;;;;5005688;28;20103;-77
2023/08/30 10:40:32;;;;;;;11.75;9.05;;;16.00;99.90;;;;;;4991587;28;20188;-78
2023/08/30 10:43:03;;;;;;;12.70;8.73;;;15.40;99.90;;;;;;5009988;28;20040;-77
2023/08/30 10:45:29;;;;;;;12.98;9.20;;;16.00;99.90;;;;;;5006534;28;20512;-77
2023/08/30 10:47:57;;;;;;;11.93;9.00;;;15.40;99.90;;;;;;5011535;28;20046;-78
2023/08/30 10:50:38;;;;;;;14.77;9.40;;;15.80;99.90;;;;;;5002968;28;20070;-79
2023/08/30 10:53:14;;;;;;;12.15;9.18;;;15.30;99.90;;;;;;5026462;28;20053;-76
2023/08/30 10:55:47;;;;;;;14.75;9.02;;;15.30;99.90;;;;;;5037978;28;20099;-77
2023/08/30 10:58:14;;;;;;;13.13;9.15;;;15.40;99.90;;;;;;5003152;28;20517;-77
2023/08/30 11:00:41;;;;;;;11.70;8.85;;;15.20;99.90;;;;;;5000133;28;20034;-77
2023/08/30 11:03:12;;;;;;;14.02;9.38;;;15.20;99.90;;;;;;5003476;28;20536;-77
2023/08/30 11:05:41;;;;;;;12.25;9.18;;;15.40;99.90;;;;;;5006224;28;20053;-77
2023/08/30 11:08:12;;;;;;;11.90;9.52;;;15.00;99.90;;;;;;5007496;28;20093;-76
2023/08/30 11:10:39;;;;;;;12.30;9.43;;;15.20;99.90;;;;;;4994706;28;20374;-75
2023/08/30 11:13:06;;;;;;;12.60;9.02;;;15.20;99.90;;;;;;5002459;28;20421;-76
2023/08/30 11:15:31;;;;;;;14.23;9.73;;;15.30;99.90;;;;;;4990634;28;20053;-76
2023/08/30 11:18:04;;;;;;;13.77;9.93;;;15.30;99.90;;;;;;4986114;28;20034;-76
2023/08/30 11:20:35;;;;;;;12.65;9.30;;;15.30;99.90;;;;;;4991350;28;20125;-76
2023/08/30 11:23:03;;;;;;;12.80;9.32;;;15.30;99.90;;;;;;5004540;28;20038;-76
2023/08/30 11:25:30;;;;;;;12.27;9.85;;;15.50;99.90;;;;;;5019570;28;20114;-76
2023/08/30 11:28:03;;;;;;;12.77;9.13;;;15.70;99.90;;;;;;4989460;28;20041;-76
2023/08/30 11:30:30;;;;;;;13.73;9.90;;;15.20;99.90;;;;;;4998036;28;20048;-76
2023/08/30 11:32:57;;;;;;;13.80;9.43;;;15.00;99.90;;;;;;4990069;28;20030;-78
2023/08/30 11:35:24;;;;;;;12.15;9.43;;;15.20;99.90;;;;;;5009491;28;20034;-76
2023/08/30 11:37:54;;;;;;;11.93;9.13;;;15.70;99.90;;;;;;5005536;28;20045;-77
2023/08/30 11:40:23;;;;;;;12.85;8.85;;;15.20;99.90;;;;;;5032106;28;20038;-77
2023/08/30 11:42:50;;;;;;;12.25;8.85;;;15.20;99.90;;;;;;5003365;28;20113;-77
2023/08/30 11:45:16;;;;;;;12.48;9.45;;;15.30;99.90;;;;;;5003692;28;20045;-76
2023/08/30 11:47:42;;;;;;;11.40;9.20;;;15.20;99.90;;;;;;5003008;28;20048;-75
2023/08/30 11:50:12;;;;;;;11.68;8.20;;;15.50;99.90;;;;;;4996016;28;20094;-76
2023/08/30 11:52:39;;;;;;;12.68;9.13;;;15.70;99.90;;;;;;5000284;28;20038;-75
2023/08/30 11:55:07;;;;;;;11.90;8.77;;;15.70;99.90;;;;;;5004512;28;20437;-77
2023/08/30 11:57:36;;;;;;;14.32;8.95;;;15.30;99.90;;;;;;5002183;28;20381;-76
2023/08/30 12:00:14;;;;;;;11.70;8.95;;;15.40;99.90;;;;;;4989123;28;20073;-76
2023/08/30 12:02:44;;;;;;;11.82;8.85;;;15.30;99.90;;;;;;4988405;28;20132;-75
2023/08/30 12:05:13;;;;;;;10.60;8.15;;;15.90;99.90;;;;;;5012178;28;20034;-76
2023/08/30 12:07:40;;;;;;;11.95;8.48;;;15.80;99.90;;;;;;5046966;23;20064;-66
2023/08/30 12:10:10;;;;;;;9.85;7.88;;;15.50;99.90;;;;;;5015262;28;20488;-65
2023/08/30 12:12:37;;;;;;;11.38;8.70;;;15.50;99.90;;;;;;5015504;28;20408;-67
2023/08/30 12:15:10;;;;;;;9.82;7.75;;;15.60;99.90;;;;;;5017293;28;20539;-66
2023/08/30 12:17:35;;;;;;;9.98;8.32;;;15.60;99.90;;;;;;5016937;28;20076;-66
2023/08/30 12:20:03;;;;;;;10.15;7.82;;;15.60;99.90;;;;;;5026246;28;20069;-67
2023/08/30 12:22:41;;;;;;;8.65;7.20;;;15.70;99.90;;;;;;5013625;28;20129;-64
2023/08/30 12:25:20;;;;;;;9.63;7.82;;;15.70;99.90;;;;;;5017880;28;20064;-65
2023/08/30 12:27:46;;;;;;;8.63;7.38;;;16.00;99.90;;;;;;5021631;28;20059;-66
2023/08/30 12:30:18;;;;;;;8.40;7.13;;;15.90;99.90;;;;;;5019471;28;20388;-67
2023/08/30 12:32:48;;;;;;;8.45;7.00;;;15.90;99.90;;;;;;5014233;28;20563;-65
2023/08/30 12:35:14;;;;;;;7.13;6.13;;;16.00;99.90;;;;;;5021678;28;20124;-66
2023/08/30 12:37:39;;;;;;;8.15;6.57;;;16.00;99.90;;;;;;5017707;28;20112;-66
2023/08/30 12:40:06;;;;;;;8.50;6.25;;;16.00;99.90;;;;;;5017387;28;20100;-65
2023/08/30 12:42:32;;;;;;;8.02;6.43;;;16.00;99.90;;;;;;5015421;28;20050;-65
2023/08/30 12:44:58;;;;;;;7.75;6.40;;;16.00;99.90;;;;;;5020925;28;20060;-64
2023/08/30 12:47:23;;;;;;;7.90;6.13;;;16.00;99.90;;;;;;5015863;28;20388;-64